createdAt,value
2022-10-16T00:02:00.109Z,5.38
2022-10-16T00:07:03.176Z,5.80
2022-10-16T00:12:08.047Z,5.32
2022-10-16T00:17:10.300Z,5.22
2022-10-16T00:22:12.521Z,6.20
2022-10-16T00:27:14.710Z,5.28
2022-10-16T00:32:16.950Z,5.35
2022-10-16T00:37:19.154Z,5.15
2022-10-16T00:42:21.407Z,5.45
2022-10-16T00:47:33.720Z,5.80
2022-10-16T00:52:36.615Z,6.28
2022-10-16T00:57:40.510Z,6.45
2022-10-16T01:02:42.935Z,6.13
2022-10-16T01:08:09.526Z,5.53
2022-10-16T01:13:17.413Z,5.85
2022-10-16T01:18:30.909Z,5.43
2022-10-16T01:24:02.133Z,5.85
2022-10-16T01:29:29.696Z,4.75
2022-10-16T01:34:48.041Z,5.53
2022-10-16T01:39:52.463Z,4.72
2022-10-16T01:44:56.553Z,6.35
2022-10-16T01:50:01.750Z,5.57
2022-10-16T01:55:07.821Z,5.97
2022-10-16T02:00:14.501Z,5.90
2022-10-16T02:05:20.523Z,5.78
2022-10-16T02:10:23.386Z,5.45
2022-10-16T02:15:25.659Z,5.68
2022-10-16T02:20:33.694Z,6.45
2022-10-16T02:25:43.460Z,5.75
2022-10-16T02:30:52.174Z,6.15
2022-10-16T02:35:55.943Z,6.05
2022-10-16T02:40:58.412Z,5.53
2022-10-16T02:46:00.909Z,5.57
2022-10-16T02:51:03.204Z,6.03
2022-10-16T02:56:05.678Z,5.75
2022-10-16T03:01:08.425Z,5.28
2022-10-16T03:06:10.738Z,5.28
2022-10-16T03:11:12.929Z,5.07
2022-10-16T03:16:15.276Z,5.10
2022-10-16T03:21:18.218Z,4.65
2022-10-16T03:26:20.438Z,4.45
2022-10-16T03:31:23.240Z,4.82
2022-10-16T03:36:25.610Z,5.00
2022-10-16T03:41:27.803Z,4.80
2022-10-16T03:46:30.880Z,4.28
2022-10-16T03:51:33.185Z,4.57
2022-10-16T03:56:35.491Z,4.60
2022-10-16T04:01:37.810Z,4.43
2022-10-16T04:06:40.152Z,3.92
2022-10-16T04:11:42.390Z,4.22
2022-10-16T04:16:44.631Z,4.07
2022-10-16T04:21:47.376Z,4.05
2022-10-16T04:26:49.650Z,3.80
2022-10-16T04:31:52.010Z,3.88
2022-10-16T04:36:54.312Z,4.20
2022-10-16T04:41:56.901Z,4.15
2022-10-16T04:46:59.319Z,4.00
2022-10-16T04:52:01.693Z,3.95
2022-10-16T04:57:04.021Z,4.38
2022-10-16T05:02:06.373Z,4.28
2022-10-16T05:07:08.713Z,4.38
2022-10-16T05:12:11.002Z,4.22
2022-10-16T05:17:13.578Z,4.57
2022-10-16T05:22:16.040Z,4.50
2022-10-16T05:27:21.495Z,4.32
2022-10-16T05:32:23.853Z,4.85
2022-10-16T05:37:26.298Z,4.68
2022-10-16T05:42:29.149Z,4.88
2022-10-16T05:47:31.802Z,4.45
2022-10-16T05:52:34.218Z,4.80
2022-10-16T05:57:36.632Z,5.00
2022-10-16T06:02:39.456Z,4.43
2022-10-16T06:07:41.954Z,3.90
2022-10-16T06:12:44.730Z,4.38
2022-10-16T06:17:47.060Z,4.75
2022-10-16T06:22:49.446Z,4.30
2022-10-16T06:27:51.705Z,3.97
2022-10-16T06:38:01.537Z,4.72
2022-10-16T06:43:04.006Z,4.82
2022-10-16T06:48:06.229Z,4.45
2022-10-16T06:53:08.465Z,4.18
2022-10-16T06:58:10.847Z,3.88
2022-10-16T07:03:13.694Z,3.90
2022-10-16T07:08:15.900Z,4.28
2022-10-16T07:13:18.178Z,3.90
2022-10-16T07:18:20.633Z,3.60
2022-10-16T07:23:23.173Z,3.40
2022-10-16T07:28:25.585Z,3.70
2022-10-16T07:33:28.006Z,3.45
2022-10-16T07:38:30.378Z,3.70
2022-10-16T07:43:32.879Z,4.10
2022-10-16T07:48:37.126Z,3.28
2022-10-16T07:53:39.557Z,3.42
2022-10-16T07:58:42.335Z,3.45
2022-10-16T08:03:52.400Z,4.47
2022-10-16T08:08:54.680Z,5.10
2022-10-16T08:13:56.966Z,5.22
2022-10-16T08:18:59.312Z,5.95
2022-10-16T08:24:02.113Z,5.22
2022-10-16T08:29:04.465Z,3.78
2022-10-16T08:34:07.055Z,3.55
2022-10-16T08:39:09.390Z,3.97
2022-10-16T08:44:43.263Z,3.95
2022-10-16T08:50:02.168Z,3.50
2022-10-16T08:55:05.894Z,3.35
2022-10-16T09:00:15.137Z,3.45
2022-10-16T09:05:35.660Z,6.78
2022-10-16T09:10:59.385Z,5.30
2022-10-16T09:16:23.230Z,4.57
2022-10-16T09:21:30.392Z,4.00
2022-10-16T09:26:35.308Z,4.28
2022-10-16T09:31:38.909Z,5.55
2022-10-16T09:36:45.611Z,4.22
2022-10-16T09:41:48.186Z,4.80
2022-10-16T09:46:50.564Z,4.63
2022-10-16T09:52:04.974Z,4.57
2022-10-16T09:57:09.182Z,4.57
2022-10-16T10:02:16.305Z,4.22
2022-10-16T10:07:22.645Z,4.25
2022-10-16T10:12:30.369Z,4.10
2022-10-16T10:17:32.870Z,3.72
2022-10-16T10:22:45.815Z,5.50
2022-10-16T10:28:00.278Z,5.32
2022-10-16T10:33:30.061Z,4.05
2022-10-16T10:39:05.160Z,9.15
2022-10-16T10:44:10.284Z,4.97
2022-10-16T10:49:49.545Z,4.15
2022-10-16T10:55:13.014Z,4.60
2022-10-16T11:00:37.216Z,4.55
2022-10-16T11:05:45.910Z,4.72
2022-10-16T11:10:51.137Z,5.50
2022-10-16T11:15:58.725Z,4.55
2022-10-16T11:21:12.013Z,4.72
2022-10-16T11:26:22.711Z,4.70
2022-10-16T11:31:28.253Z,4.20
2022-10-16T11:36:43.938Z,6.28
2022-10-16T11:41:55.653Z,4.45
2022-10-16T11:47:54.038Z,4.60
2022-10-16T11:52:46.080Z,4.45
2022-10-16T11:58:27.806Z,4.32
2022-10-16T12:03:50.762Z,4.68
2022-10-16T12:08:55.625Z,3.83
2022-10-16T12:14:12.361Z,5.18
2022-10-16T12:19:17.723Z,10.35
2022-10-16T12:24:39.995Z,5.65
2022-10-16T12:29:46.206Z,5.05
2022-10-16T12:34:49.490Z,4.10
2022-10-16T12:39:55.076Z,4.18
2022-10-16T12:44:57.743Z,4.13
2022-10-16T12:50:04.176Z,4.10
2022-10-16T12:55:18.881Z,3.70
2022-10-16T13:00:54.897Z,4.00
2022-10-16T13:06:23.011Z,4.50
2022-10-16T13:12:03.593Z,4.43
2022-10-16T13:17:18.911Z,3.50
2022-10-16T13:22:23.947Z,3.80
2022-10-16T13:27:29.405Z,4.45
2022-10-16T13:32:32.534Z,4.57
2022-10-16T13:37:34.926Z,4.47
2022-10-16T13:42:37.228Z,4.10
2022-10-16T13:47:39.491Z,3.88
2022-10-16T13:52:42.699Z,3.80
2022-10-16T13:57:45.867Z,4.75
2022-10-16T14:02:53.795Z,3.72
2022-10-16T14:07:58.053Z,4.22
2022-10-16T14:13:03.957Z,4.15
2022-10-16T14:18:06.482Z,5.30
2022-10-16T14:23:23.940Z,4.60
2022-10-16T14:28:26.384Z,4.10
2022-10-16T14:33:31.567Z,3.65
2022-10-16T14:38:35.110Z,3.97
2022-10-16T14:43:42.982Z,4.05
2022-10-16T14:48:49.519Z,3.58
2022-10-16T14:53:57.708Z,3.60
2022-10-16T14:59:02.801Z,4.55
2022-10-16T15:04:05.577Z,4.95
2022-10-16T15:09:08.233Z,4.32
2022-10-16T15:19:17.427Z,4.38
2022-10-16T15:24:21.579Z,5.45
2022-10-16T15:29:24.188Z,4.38
2022-10-16T15:34:26.356Z,4.25
2022-10-16T15:39:28.982Z,3.70
2022-10-16T15:44:31.659Z,4.28
2022-10-16T15:49:34.103Z,4.85
2022-10-16T15:54:36.379Z,3.80
2022-10-16T15:59:38.914Z,3.90
2022-10-16T16:04:44.915Z,3.72
2022-10-16T16:09:47.481Z,4.97
2022-10-16T16:14:50.605Z,4.30
2022-10-16T16:19:53.060Z,4.43
2022-10-16T16:24:55.730Z,4.60
2022-10-16T16:29:57.979Z,4.47
2022-10-16T16:35:00.306Z,5.85
2022-10-16T16:40:02.685Z,5.00
2022-10-16T16:45:05.147Z,5.32
2022-10-16T16:50:08.411Z,5.75
2022-10-16T16:55:11.342Z,5.55
2022-10-16T17:00:14.501Z,5.70
2022-10-16T17:05:17.153Z,6.13
2022-10-16T17:10:19.813Z,6.75
2022-10-16T17:15:22.045Z,5.90
2022-10-16T17:20:24.412Z,5.75
2022-10-16T17:25:28.446Z,7.13
2022-10-16T17:30:31.775Z,6.85
2022-10-16T17:35:46.186Z,6.47
2022-10-16T17:40:48.580Z,7.65
2022-10-16T17:45:50.851Z,8.48
2022-10-16T17:50:53.459Z,11.10
2022-10-16T17:55:59.915Z,11.73
2022-10-16T18:01:03.066Z,9.40
2022-10-16T18:06:05.461Z,7.78
2022-10-16T18:11:07.687Z,6.90
2022-10-16T18:16:12.991Z,7.75
2022-10-16T18:21:17.462Z,9.40
2022-10-16T18:26:21.613Z,8.43
2022-10-16T18:31:26.723Z,9.13
2022-10-16T18:36:35.670Z,6.82
2022-10-16T18:41:40.601Z,8.20
2022-10-16T18:46:43.218Z,9.90
2022-10-16T18:51:47.978Z,7.57
2022-10-16T18:56:53.447Z,8.48
2022-10-16T19:01:55.768Z,8.75
2022-10-16T19:06:58.255Z,10.65
2022-10-16T19:12:00.781Z,8.80
2022-10-16T19:17:03.082Z,9.02
2022-10-16T19:22:23.957Z,9.80
2022-10-16T19:27:26.213Z,9.27
2022-10-16T19:32:28.956Z,8.90
2022-10-16T19:37:31.912Z,9.43
2022-10-16T19:42:34.646Z,10.43
2022-10-16T19:47:37.526Z,10.60
2022-10-16T19:52:40.028Z,9.32
2022-10-16T19:57:42.319Z,9.82
2022-10-16T20:02:44.803Z,9.07
2022-10-16T20:07:46.985Z,9.23
2022-10-16T20:12:49.331Z,9.75
2022-10-16T20:17:51.694Z,10.27
2022-10-16T20:22:53.990Z,10.57
2022-10-16T20:27:56.362Z,11.45
2022-10-16T20:32:58.586Z,11.43
2022-10-16T20:38:01.020Z,12.05
2022-10-16T20:43:03.859Z,11.95
2022-10-16T20:48:06.442Z,12.10
2022-10-16T20:53:09.543Z,14.10
2022-10-16T20:58:13.123Z,12.43
2022-10-16T21:03:15.350Z,12.70
2022-10-16T21:08:17.930Z,12.82
2022-10-16T21:13:20.157Z,12.50
2022-10-16T21:18:22.356Z,13.63
2022-10-16T21:23:24.651Z,11.88
2022-10-16T21:28:27.140Z,12.80
2022-10-16T21:33:29.596Z,12.23
2022-10-16T21:38:32.231Z,12.30
2022-10-16T21:43:34.745Z,13.32
2022-10-16T21:48:37.880Z,13.90
2022-10-16T21:53:40.786Z,13.20
2022-10-16T21:58:44.218Z,12.90
2022-10-16T22:03:47.925Z,12.70
2022-10-16T22:08:53.161Z,12.13
2022-10-16T22:13:56.833Z,11.32
2022-10-16T22:19:00.317Z,11.60
2022-10-16T22:24:02.747Z,12.05
2022-10-16T22:29:06.378Z,11.18
2022-10-16T22:34:10.871Z,10.93
2022-10-16T22:39:13.074Z,11.70
2022-10-16T22:44:15.298Z,11.73
2022-10-16T22:49:18.987Z,16.15
2022-10-16T22:54:21.210Z,12.02
2022-10-16T22:59:23.637Z,12.93
2022-10-16T23:04:26.045Z,11.73
2022-10-16T23:09:28.278Z,12.65
2022-10-16T23:14:30.554Z,12.00
2022-10-16T23:19:32.897Z,12.25
2022-10-16T23:24:35.641Z,13.05
2022-10-16T23:29:38.052Z,12.73
2022-10-16T23:34:40.339Z,12.23
2022-10-16T23:39:42.526Z,12.45
2022-10-16T23:44:44.735Z,12.70
2022-10-16T23:49:46.990Z,11.90
2022-10-16T23:54:49.594Z,12.82
2022-10-16T23:59:51.833Z,12.95
